createdAt,value
2024-01-20T00:02:06.938Z,16.7
2024-01-20T00:05:08.932Z,17.1
2024-01-20T00:08:10.932Z,16.6
2024-01-20T00:11:12.966Z,15.6
2024-01-20T00:14:14.871Z,17.4
2024-01-20T00:17:20.701Z,16.9
2024-01-20T00:20:18.682Z,16.5
2024-01-20T00:23:20.723Z,16.3
2024-01-20T00:26:22.680Z,17.5
2024-01-20T00:29:24.591Z,17.5
2024-01-20T00:32:26.568Z,17.4
2024-01-20T00:35:28.495Z,16.9
2024-01-20T00:38:30.446Z,17.5
2024-01-20T00:41:32.414Z,17.3
2024-01-20T00:44:34.359Z,16.9
2024-01-20T00:47:37.785Z,16.5
2024-01-20T00:50:38.276Z,16.5
2024-01-20T00:53:40.167Z,17
2024-01-20T00:56:42.158Z,17.1
2024-01-20T00:59:44.077Z,17.4
2024-01-20T01:02:46.069Z,18.6
2024-01-20T01:05:48.002Z,17
2024-01-20T01:08:49.919Z,17.1
2024-01-20T01:11:51.924Z,18
2024-01-20T01:14:53.874Z,17.3
2024-01-20T01:17:55.782Z,16.5
2024-01-20T01:20:57.718Z,17.6
2024-01-20T01:23:59.735Z,16.4
2024-01-20T01:27:01.744Z,16.7
2024-01-20T01:30:03.629Z,16.5
2024-01-20T01:36:07.448Z,17.1
2024-01-20T01:39:09.403Z,16.6
2024-01-20T01:42:11.401Z,17.3
2024-01-20T01:45:13.400Z,17.9
2024-01-20T01:48:15.390Z,16.8
2024-01-20T01:51:17.547Z,17.9
2024-01-20T01:54:19.247Z,17.3
2024-01-20T01:57:21.584Z,17.8
2024-01-20T02:00:23.178Z,18
2024-01-20T02:06:27.021Z,17.6
2024-01-20T02:09:29.076Z,15.3
2024-01-20T02:12:30.920Z,16.9
2024-01-20T02:15:32.883Z,16
2024-01-20T02:18:34.863Z,18.8
2024-01-20T02:21:36.736Z,16.9
2024-01-20T02:24:38.731Z,18.6
2024-01-20T02:27:40.707Z,19
2024-01-20T02:30:42.621Z,20.1
2024-01-20T02:33:44.710Z,18.8
2024-01-20T02:36:46.517Z,20
2024-01-20T02:39:48.491Z,18.9
2024-01-20T02:42:50.410Z,18.5
2024-01-20T02:45:52.409Z,18.3
2024-01-20T02:48:54.517Z,19.1
2024-01-20T02:51:56.277Z,17.9
2024-01-20T02:54:58.245Z,19.7
2024-01-20T02:58:00.277Z,18.8
2024-01-20T03:01:02.176Z,20.2
2024-01-20T03:04:04.297Z,19
2024-01-20T03:07:06.060Z,19.1
2024-01-20T03:10:08.060Z,20
2024-01-20T03:13:10.032Z,17.9
2024-01-20T03:16:11.917Z,18
2024-01-20T03:19:13.969Z,20
2024-01-20T03:22:15.849Z,18.6
2024-01-20T03:25:17.841Z,22.2
2024-01-20T03:28:19.919Z,21.1
2024-01-20T03:31:21.773Z,20.1
2024-01-20T03:34:23.866Z,21.2
2024-01-20T03:37:25.671Z,18.7
2024-01-20T03:40:29.110Z,21.5
2024-01-20T03:43:29.559Z,19.4
2024-01-20T03:46:31.498Z,19.6
2024-01-20T03:49:33.684Z,20.1
2024-01-20T03:52:35.399Z,22.7
2024-01-20T03:55:37.463Z,19.3
2024-01-20T03:58:39.296Z,20
2024-01-20T04:01:41.239Z,19.7
2024-01-20T04:04:43.276Z,19
2024-01-20T04:07:45.163Z,18.5
2024-01-20T04:10:47.122Z,19.2
2024-01-20T04:13:49.054Z,21
2024-01-20T04:16:51.006Z,19.6
2024-01-20T04:19:52.997Z,18.8
2024-01-20T04:22:54.892Z,19
2024-01-20T04:25:56.842Z,19.7
2024-01-20T04:28:58.930Z,19.4
2024-01-20T04:32:00.856Z,19.7
2024-01-20T04:35:02.802Z,19.5
2024-01-20T04:38:04.707Z,18.7
2024-01-20T04:41:06.655Z,20
2024-01-20T04:44:08.600Z,20.3
2024-01-20T04:47:10.563Z,21
2024-01-20T04:50:12.597Z,21.6
2024-01-20T04:53:14.514Z,20.3
2024-01-20T04:56:16.400Z,19.1
2024-01-20T04:59:18.344Z,19.9
2024-01-20T05:02:20.304Z,23.9
2024-01-20T05:05:22.452Z,20.9
2024-01-20T05:08:24.389Z,19.8
2024-01-20T05:11:26.254Z,21.4
2024-01-20T05:14:28.342Z,19.2
2024-01-20T05:17:30.423Z,21.2
2024-01-20T05:20:32.325Z,19.7
2024-01-20T05:23:34.286Z,20.6
2024-01-20T05:26:36.208Z,20.4
2024-01-20T05:29:38.129Z,20
2024-01-20T05:32:40.108Z,20.5
2024-01-20T05:35:42.040Z,19.8
2024-01-20T05:38:43.992Z,19.9
2024-01-20T05:41:45.932Z,20.4
2024-01-20T05:44:47.918Z,20.8
2024-01-20T05:47:49.872Z,19.8
2024-01-20T05:50:51.927Z,19
2024-01-20T05:56:55.821Z,20.6
2024-01-20T05:59:57.801Z,20.7
2024-01-20T06:06:01.661Z,20.9
2024-01-20T06:09:03.690Z,20.4
2024-01-20T06:12:05.609Z,18.5
2024-01-20T06:15:07.522Z,19.9
2024-01-20T06:18:09.581Z,20.4
2024-01-20T06:21:11.462Z,19.3
2024-01-20T06:24:13.375Z,20.3
2024-01-20T06:27:15.351Z,18.8
2024-01-20T06:30:17.263Z,20.8
2024-01-20T06:36:21.158Z,19.5
2024-01-20T06:39:23.146Z,18.6
2024-01-20T06:42:25.122Z,21.6
2024-01-20T06:45:27.089Z,18.8
2024-01-20T06:48:29.101Z,20.6
2024-01-20T06:51:30.966Z,19.9
2024-01-20T06:54:32.888Z,20.7
2024-01-20T06:57:34.858Z,21.2
2024-01-20T07:00:36.831Z,20.8
2024-01-20T07:03:38.862Z,21.2
2024-01-20T07:06:40.770Z,21.1
2024-01-20T07:09:42.687Z,21.1
2024-01-20T07:12:44.658Z,21.8
2024-01-20T07:15:46.575Z,22
2024-01-20T07:18:48.821Z,20.8
2024-01-20T07:21:50.563Z,20.2
2024-01-20T07:24:52.518Z,21.2
2024-01-20T07:27:54.464Z,23.3
2024-01-20T07:30:56.384Z,21.1
2024-01-20T07:33:58.358Z,22.4
2024-01-20T07:37:00.254Z,19.9
2024-01-20T07:40:02.194Z,19.7
2024-01-20T07:43:04.143Z,20.9
2024-01-20T07:46:06.090Z,21.6
2024-01-20T07:49:08.178Z,20.4
2024-01-20T07:52:09.976Z,19.1
2024-01-20T07:55:11.949Z,23
2024-01-20T07:58:13.925Z,21.7
2024-01-20T08:01:15.919Z,21.5
2024-01-20T08:04:17.786Z,21.6
2024-01-20T08:07:19.777Z,20.1
2024-01-20T08:10:21.686Z,19.4
2024-01-20T08:13:23.620Z,21
2024-01-20T08:16:25.591Z,20
2024-01-20T08:19:27.648Z,17.6
2024-01-20T08:22:29.480Z,18.2
2024-01-20T08:25:31.444Z,19.1
2024-01-20T08:28:33.424Z,20.9
2024-01-20T08:31:35.332Z,19.7
2024-01-20T08:34:37.327Z,21.7
2024-01-20T08:37:39.332Z,19.7
2024-01-20T08:40:41.172Z,19.5
2024-01-20T08:43:43.249Z,19.3
2024-01-20T08:46:45.076Z,17.4
2024-01-20T08:49:47.161Z,16.8
2024-01-20T08:52:49.078Z,18.3
2024-01-20T08:55:51.022Z,17.3
2024-01-20T08:58:52.896Z,17.9
2024-01-20T09:01:54.868Z,17.5
2024-01-20T09:04:56.823Z,16.5
2024-01-20T09:07:58.790Z,17.4
2024-01-20T09:11:00.728Z,17.8
2024-01-20T09:14:02.765Z,19.7
2024-01-20T09:17:04.647Z,17.8
2024-01-20T09:20:06.723Z,16.6
2024-01-20T09:23:08.564Z,16.4
2024-01-20T09:26:10.469Z,16.5
2024-01-20T09:29:12.479Z,15.8
2024-01-20T09:32:14.383Z,16.1
2024-01-20T09:35:16.287Z,16.3
2024-01-20T09:38:18.314Z,16.9
2024-01-20T09:41:20.178Z,16.6
2024-01-20T09:44:22.138Z,16.8
2024-01-20T09:47:24.118Z,17.8
2024-01-20T09:50:26.033Z,17.1
2024-01-20T09:53:27.985Z,17.1
2024-01-20T09:56:29.989Z,18.3
2024-01-20T09:59:31.921Z,16.5
2024-01-20T10:02:33.914Z,15.6
2024-01-20T10:05:35.895Z,16
2024-01-20T10:08:38.509Z,19.5
2024-01-20T10:11:39.691Z,16.8
2024-01-20T10:14:41.637Z,17.6
2024-01-20T10:17:43.661Z,18
2024-01-20T10:20:47.412Z,16.8
2024-01-20T10:26:49.444Z,18.1
2024-01-20T10:29:51.896Z,19.6
2024-01-20T10:32:57.921Z,18.4
2024-01-20T10:35:55.302Z,18.6
2024-01-20T10:38:57.307Z,19.1
2024-01-20T10:41:59.244Z,19.1
2024-01-20T10:45:01.204Z,16.7
2024-01-20T10:48:03.494Z,16.6
2024-01-20T10:51:05.230Z,17.5
2024-01-20T10:54:07.451Z,16.5
2024-01-20T10:57:09.112Z,17.1
2024-01-20T11:00:11.062Z,16
2024-01-20T11:06:15.061Z,17.4
2024-01-20T11:09:16.928Z,17
2024-01-20T11:12:18.867Z,17.1
2024-01-20T11:15:20.940Z,17.6
2024-01-20T11:18:22.778Z,17.5
2024-01-20T11:21:24.687Z,17.7
2024-01-20T11:24:26.675Z,17.7
2024-01-20T11:27:28.606Z,17.1
2024-01-20T11:30:30.611Z,17
2024-01-20T11:36:34.516Z,16.7
2024-01-20T11:39:36.425Z,20.6
2024-01-20T11:42:38.380Z,18.2
2024-01-20T11:45:40.359Z,17.8
2024-01-20T11:48:42.313Z,16.9
2024-01-20T11:51:44.251Z,17
2024-01-20T11:54:46.210Z,15.3
2024-01-20T11:57:48.128Z,16.6
2024-01-20T12:00:50.155Z,18
2024-01-20T12:03:52.109Z,18.2
2024-01-20T12:06:54.050Z,15.7
2024-01-20T12:09:55.912Z,16.4
2024-01-20T12:12:57.866Z,17
2024-01-20T12:15:59.804Z,15.4
2024-01-20T12:19:01.814Z,17
2024-01-20T12:22:03.710Z,16.2
2024-01-20T12:25:05.649Z,18
2024-01-20T12:28:07.704Z,16.2
2024-01-20T12:31:10.466Z,14.9
2024-01-20T12:34:11.606Z,18.4
2024-01-20T12:37:13.434Z,15.6
2024-01-20T12:40:15.429Z,16.6
2024-01-20T12:43:17.381Z,16.1
2024-01-20T12:46:19.360Z,18.6
2024-01-20T12:49:21.315Z,18.6
2024-01-20T12:52:23.266Z,18.6
2024-01-20T12:55:25.176Z,16.8
2024-01-20T12:58:27.129Z,17.2
2024-01-20T13:01:30.073Z,16.5
2024-01-20T13:04:31.199Z,15.8
2024-01-20T13:07:33.011Z,16.7
2024-01-20T13:10:34.943Z,17.1
2024-01-20T13:13:36.909Z,16.4
2024-01-20T13:16:38.836Z,19.8
2024-01-20T13:19:40.859Z,15.9
2024-01-20T13:22:42.737Z,17.8
2024-01-20T13:25:44.717Z,18.5
2024-01-20T13:28:46.696Z,17.8
2024-01-20T13:31:48.642Z,16.5
2024-01-20T13:34:50.643Z,15.4
2024-01-20T13:37:52.574Z,16
2024-01-20T13:40:54.465Z,16.1
2024-01-20T13:43:56.483Z,16.8
2024-01-20T13:46:58.420Z,19.2
2024-01-20T13:50:00.466Z,16.8
2024-01-20T13:53:02.348Z,16
2024-01-20T13:56:04.239Z,16
2024-01-20T13:59:06.228Z,14.6
2024-01-20T14:02:08.145Z,17.9
2024-01-20T14:05:10.090Z,16.5
2024-01-20T14:08:12.042Z,17.1
2024-01-20T14:11:13.995Z,17.8
2024-01-20T14:14:15.946Z,15.3
2024-01-20T14:17:17.912Z,16.6
2024-01-20T14:20:19.961Z,17.3
2024-01-20T14:23:21.997Z,15.8
2024-01-20T14:26:23.800Z,16.3
2024-01-20T14:29:25.672Z,19.1
2024-01-20T14:32:27.698Z,18.1
2024-01-20T14:35:29.588Z,16.5
2024-01-20T14:38:31.617Z,19.9
2024-01-20T14:41:33.506Z,16.7
2024-01-20T14:44:35.482Z,17.7
2024-01-20T14:47:37.452Z,17.8
2024-01-20T14:50:39.440Z,18.9
2024-01-20T14:53:41.341Z,18.8
2024-01-20T14:56:43.304Z,18.6
2024-01-20T14:59:45.222Z,20.4
2024-01-20T15:02:47.253Z,19.3
2024-01-20T15:05:52.151Z,18.3
2024-01-20T15:08:54.098Z,18.7
2024-01-20T15:11:56.069Z,20.8
2024-01-20T15:14:58.034Z,19.8
2024-01-20T15:18:02.648Z,20.2
2024-01-20T15:21:02.253Z,20.1
2024-01-20T15:24:04.131Z,21.2
2024-01-20T15:27:06.140Z,20.1
2024-01-20T15:30:08.120Z,19.2
2024-01-20T15:36:12.051Z,21.1
2024-01-20T15:39:14.271Z,20.1
2024-01-20T15:42:16.388Z,19.4
2024-01-20T15:45:18.430Z,19.7
2024-01-20T15:48:20.415Z,21.1
2024-01-20T15:51:22.326Z,19.9
2024-01-20T15:54:24.228Z,20.6
2024-01-20T15:57:26.502Z,20.6
2024-01-20T16:00:32.585Z,22.2
2024-01-20T16:03:36.056Z,22
2024-01-20T16:07:01.498Z,22.1
2024-01-20T16:09:43.681Z,21.8
2024-01-20T16:12:45.481Z,22.6
2024-01-20T16:15:47.484Z,22.8
2024-01-20T16:18:52.608Z,23.9
2024-01-20T16:21:54.458Z,24
2024-01-20T16:25:05.316Z,22.8
2024-01-20T16:27:57.527Z,23.2
2024-01-20T16:31:23.190Z,24.1
2024-01-20T16:34:10.180Z,24.6
2024-01-20T16:37:12.257Z,24
2024-01-20T16:40:14.218Z,24.9
2024-01-20T16:43:16.221Z,23.9
2024-01-20T16:46:18.183Z,24.3
2024-01-20T16:49:20.248Z,24.4
2024-01-20T16:52:22.054Z,25.4
2024-01-20T16:55:26.342Z,26.5
2024-01-20T16:58:26.487Z,25.9
2024-01-20T17:01:28.426Z,26.2
2024-01-20T17:04:30.639Z,23.3
2024-01-20T17:07:32.450Z,25.2
2024-01-20T17:10:34.408Z,24.7
2024-01-20T17:13:36.384Z,27.5
2024-01-20T17:16:38.346Z,24.9
2024-01-20T17:19:43.307Z,24.6
2024-01-20T17:22:46.278Z,24.8
2024-01-20T17:25:48.830Z,24.4
2024-01-20T17:28:50.790Z,24.2
2024-01-20T17:31:52.680Z,24.2
2024-01-20T17:34:54.758Z,26.1
2024-01-20T17:37:57.076Z,25.5
2024-01-20T17:41:02.324Z,25
2024-01-20T17:44:04.355Z,26.9
2024-01-20T17:47:06.486Z,26
2024-01-20T17:50:08.478Z,28.6
2024-01-20T17:53:10.535Z,26.3
2024-01-20T17:56:12.561Z,27.2
2024-01-20T17:59:14.491Z,27.7
2024-01-20T18:02:16.553Z,27.2
2024-01-20T18:05:18.508Z,30
2024-01-20T18:08:20.474Z,27.7
2024-01-20T18:11:22.460Z,29.2
2024-01-20T18:14:28.752Z,28.2
2024-01-20T18:17:30.831Z,30.9
2024-01-20T18:20:32.822Z,29.7
2024-01-20T18:23:34.761Z,28.2
2024-01-20T18:26:36.764Z,31
2024-01-20T18:29:41.541Z,28
2024-01-20T18:32:43.712Z,26.5
2024-01-20T18:35:45.658Z,29.6
2024-01-20T18:38:48.102Z,30.2
2024-01-20T18:44:54.947Z,30.2
2024-01-20T18:47:57.215Z,32.7
2024-01-20T18:50:59.088Z,30.4
2024-01-20T18:54:01.116Z,30.7
2024-01-20T18:57:03.196Z,30.3
2024-01-20T19:00:05.133Z,29.1
2024-01-20T19:03:07.118Z,28.6
2024-01-20T19:06:09.209Z,28.8
2024-01-20T19:09:15.515Z,29.5
2024-01-20T19:12:17.498Z,30
2024-01-20T19:15:19.495Z,29.5
2024-01-20T19:18:21.610Z,31.3
2024-01-20T19:24:25.355Z,30.9
2024-01-20T19:27:27.410Z,34.9
2024-01-20T19:30:29.713Z,31.4
2024-01-20T19:33:32.038Z,32.8
2024-01-20T19:36:36.827Z,31.2
2024-01-20T19:39:39.008Z,29.7
2024-01-20T19:42:40.978Z,35.7
2024-01-20T19:45:42.876Z,32.3
2024-01-20T19:48:44.920Z,33.1
2024-01-20T19:51:46.851Z,34
2024-01-20T19:54:48.769Z,33.5
2024-01-20T19:57:51.334Z,31.7
2024-01-20T20:00:53.507Z,32.3
2024-01-20T20:03:55.258Z,29
2024-01-20T20:06:57.153Z,31.1
2024-01-20T20:09:59.096Z,32.2
2024-01-20T20:13:01.074Z,30.4
2024-01-20T20:16:03.210Z,29.7
2024-01-20T20:19:08.028Z,31.7
2024-01-20T20:22:10.204Z,27.6
2024-01-20T20:25:12.103Z,26.8
2024-01-20T20:28:14.450Z,25.7
2024-01-20T20:31:16.426Z,26.1
2024-01-20T20:34:18.462Z,26
2024-01-20T20:37:20.348Z,26
2024-01-20T20:40:22.498Z,26.9
2024-01-20T20:43:24.329Z,28.6
2024-01-20T20:46:26.329Z,28.2
2024-01-20T20:49:28.384Z,28.9
2024-01-20T20:52:30.257Z,27.5
2024-01-20T20:55:32.601Z,27.9
2024-01-20T20:58:34.585Z,27.8
2024-01-20T21:01:36.609Z,29.9
2024-01-20T21:04:38.659Z,29.5
2024-01-20T21:07:40.678Z,29.7
2024-01-20T21:10:45.454Z,29.7
2024-01-20T21:13:45.060Z,29.5
2024-01-20T21:16:50.157Z,28.7
2024-01-20T21:19:52.226Z,29.4
2024-01-20T21:22:54.380Z,30.1
2024-01-20T21:26:02.205Z,30.7
2024-01-20T21:29:04.194Z,28.3
2024-01-20T21:32:06.125Z,28.2
2024-01-20T21:35:08.116Z,28
2024-01-20T21:38:10.124Z,27.8
2024-01-20T21:41:14.434Z,29.5
2024-01-20T21:44:14.504Z,26.4
2024-01-20T21:47:16.638Z,27.7
2024-01-20T21:50:21.869Z,29.2
2024-01-20T21:53:23.773Z,28.6
2024-01-20T21:56:25.876Z,29
2024-01-20T21:59:27.831Z,30.4
2024-01-20T22:02:29.808Z,28.8
2024-01-20T22:05:31.830Z,35.4
2024-01-20T22:08:33.801Z,33.7
2024-01-20T22:11:36.066Z,34.6
2024-01-20T22:14:38.167Z,31.9
2024-01-20T22:17:40.128Z,32.7
2024-01-20T22:20:42.122Z,26.3
2024-01-20T22:23:44.031Z,28.2
2024-01-20T22:26:46.016Z,28.5
2024-01-20T22:29:48.134Z,29.7
2024-01-20T22:32:50.102Z,30.2
2024-01-20T22:35:52.021Z,30
2024-01-20T22:38:54.176Z,29.2
2024-01-20T22:44:57.914Z,27.7
2024-01-20T22:47:59.933Z,28.1
2024-01-20T22:51:01.826Z,30
2024-01-20T22:54:03.731Z,28.8
2024-01-20T22:57:05.943Z,27.7
2024-01-20T23:00:07.656Z,28.4
2024-01-20T23:03:09.737Z,27.6
2024-01-20T23:06:11.764Z,27.3
2024-01-20T23:09:13.601Z,27
2024-01-20T23:12:16.918Z,26.7
2024-01-20T23:15:17.458Z,28.6
2024-01-20T23:18:19.512Z,31.1
2024-01-20T23:24:23.353Z,28.3
2024-01-20T23:27:25.335Z,28.8
2024-01-20T23:30:27.233Z,29
2024-01-20T23:33:29.403Z,27.4
2024-01-20T23:36:31.145Z,29.5
2024-01-20T23:39:33.122Z,24.6
2024-01-20T23:42:35.049Z,26.7
2024-01-20T23:45:36.994Z,26.9
2024-01-20T23:48:38.915Z,24.3
2024-01-20T23:54:42.936Z,25.1
2024-01-20T23:57:44.822Z,23.4
